sensor_id;sensor_type;location;lat;lon;timestamp;temperature;humidity
57088;DHT22;42965;52.846;6.614;2023-11-19T00:00:16;11.00;99.90
57088;DHT22;42965;52.846;6.614;2023-11-19T00:02:43;11.20;99.90
57088;DHT22;42965;52.846;6.614;2023-11-19T00:05:10;11.20;99.90
57088;DHT22;42965;52.846;6.614;2023-11-19T00:07:37;11.20;99.90
57088;DHT22;42965;52.846;6.614;2023-11-19T00:12:37;11.40;99.90
57088;DHT22;42965;52.846;6.614;2023-11-19T00:17:29;11.40;99.90
57088;DHT22;42965;52.846;6.614;2023-11-19T00:19:56;11.40;99.90
57088;DHT22;42965;52.846;6.614;2023-11-19T00:22:22;11.60;99.90
57088;DHT22;42965;52.846;6.614;2023-11-19T00:24:48;11.60;99.90
57088;DHT22;42965;52.846;6.614;2023-11-19T00:27:14;11.80;99.90
57088;DHT22;42965;52.846;6.614;2023-11-19T00:29:43;11.70;99.90
57088;DHT22;42965;52.846;6.614;2023-11-19T00:32:10;11.80;99.90
57088;DHT22;42965;52.846;6.614;2023-11-19T00:34:37;11.80;99.90
57088;DHT22;42965;52.846;6.614;2023-11-19T00:37:03;11.80;99.90
57088;DHT22;42965;52.846;6.614;2023-11-19T00:39:34;11.90;99.90
57088;DHT22;42965;52.846;6.614;2023-11-19T00:42:00;12.00;99.90
57088;DHT22;42965;52.846;6.614;2023-11-19T00:44:27;12.00;99.90
57088;DHT22;42965;52.846;6.614;2023-11-19T00:46:53;12.10;99.90
57088;DHT22;42965;52.846;6.614;2023-11-19T00:49:19;11.90;99.90
57088;DHT22;42965;52.846;6.614;2023-11-19T00:51:46;12.00;99.90
57088;DHT22;42965;52.846;6.614;2023-11-19T00:54:12;12.10;99.90
57088;DHT22;42965;52.846;6.614;2023-11-19T00:56:38;12.00;99.90
57088;DHT22;42965;52.846;6.614;2023-11-19T00:59:04;12.00;99.90
57088;DHT22;42965;52.846;6.614;2023-11-19T01:01:30;12.10;99.90
57088;DHT22;42965;52.846;6.614;2023-11-19T01:03:57;12.00;99.90
57088;DHT22;42965;52.846;6.614;2023-11-19T01:06:29;12.00;99.90
57088;DHT22;42965;52.846;6.614;2023-11-19T01:08:56;12.10;99.90
57088;DHT22;42965;52.846;6.614;2023-11-19T01:11:23;12.10;99.90
57088;DHT22;42965;52.846;6.614;2023-11-19T01:13:50;12.10;99.90
57088;DHT22;42965;52.846;6.614;2023-11-19T01:16:18;12.00;99.90
57088;DHT22;42965;52.846;6.614;2023-11-19T01:18:47;12.00;99.90
57088;DHT22;42965;52.846;6.614;2023-11-19T01:21:15;12.00;99.90
57088;DHT22;42965;52.846;6.614;2023-11-19T01:23:42;12.00;99.90
57088;DHT22;42965;52.846;6.614;2023-11-19T01:26:10;12.00;99.90
57088;DHT22;42965;52.846;6.614;2023-11-19T01:28:37;12.00;99.90
57088;DHT22;42965;52.846;6.614;2023-11-19T01:31:05;12.20;99.90
57088;DHT22;42965;52.846;6.614;2023-11-19T01:33:37;12.20;99.90
57088;DHT22;42965;52.846;6.614;2023-11-19T01:36:04;12.20;99.90
57088;DHT22;42965;52.846;6.614;2023-11-19T01:38:30;12.10;99.90
57088;DHT22;42965;52.846;6.614;2023-11-19T01:41:00;12.20;99.90
57088;DHT22;42965;52.846;6.614;2023-11-19T01:43:37;12.10;99.90
57088;DHT22;42965;52.846;6.614;2023-11-19T01:46:05;12.20;99.90
57088;DHT22;42965;52.846;6.614;2023-11-19T01:48:34;12.20;99.90
57088;DHT22;42965;52.846;6.614;2023-11-19T01:51:06;12.20;99.90
57088;DHT22;42965;52.846;6.614;2023-11-19T01:53:37;12.20;99.90
57088;DHT22;42965;52.846;6.614;2023-11-19T01:56:07;12.20;99.90
57088;DHT22;42965;52.846;6.614;2023-11-19T01:58:37;12.20;99.90
57088;DHT22;42965;52.846;6.614;2023-11-19T02:01:07;12.20;99.90
57088;DHT22;42965;52.846;6.614;2023-11-19T02:03:34;12.30;99.90
57088;DHT22;42965;52.846;6.614;2023-11-19T02:06:02;12.40;99.90
57088;DHT22;42965;52.846;6.614;2023-11-19T02:08:30;12.40;99.90
57088;DHT22;42965;52.846;6.614;2023-11-19T02:10:57;12.40;99.90
57088;DHT22;42965;52.846;6.614;2023-11-19T02:13:27;12.40;99.90
57088;DHT22;42965;52.846;6.614;2023-11-19T02:15:54;12.40;99.90
57088;DHT22;42965;52.846;6.614;2023-11-19T02:18:27;12.40;99.90
57088;DHT22;42965;52.846;6.614;2023-11-19T02:20:57;12.40;99.90
57088;DHT22;42965;52.846;6.614;2023-11-19T02:23:27;12.40;99.90
57088;DHT22;42965;52.846;6.614;2023-11-19T02:28:34;12.40;99.90
57088;DHT22;42965;52.846;6.614;2023-11-19T02:31:01;12.40;99.90
57088;DHT22;42965;52.846;6.614;2023-11-19T02:33:28;12.40;99.90
57088;DHT22;42965;52.846;6.614;2023-11-19T02:35:55;12.40;99.90
57088;DHT22;42965;52.846;6.614;2023-11-19T02:38:22;12.40;99.90
57088;DHT22;42965;52.846;6.614;2023-11-19T02:40:48;12.40;99.90
57088;DHT22;42965;52.846;6.614;2023-11-19T02:43:16;12.40;99.90
57088;DHT22;42965;52.846;6.614;2023-11-19T02:45:42;12.40;99.90
57088;DHT22;42965;52.846;6.614;2023-11-19T02:48:14;12.40;99.90
57088;DHT22;42965;52.846;6.614;2023-11-19T02:50:42;12.40;99.90
57088;DHT22;42965;52.846;6.614;2023-11-19T02:53:08;12.40;99.90
57088;DHT22;42965;52.846;6.614;2023-11-19T02:55:36;12.40;99.90
57088;DHT22;42965;52.846;6.614;2023-11-19T02:58:06;12.40;99.90
57088;DHT22;42965;52.846;6.614;2023-11-19T03:00:46;12.40;99.90
57088;DHT22;42965;52.846;6.614;2023-11-19T03:03:24;12.40;99.90
57088;DHT22;42965;52.846;6.614;2023-11-19T03:05:55;12.40;99.90
57088;DHT22;42965;52.846;6.614;2023-11-19T03:08:21;12.40;99.90
57088;DHT22;42965;52.846;6.614;2023-11-19T03:10:48;12.40;99.90
57088;DHT22;42965;52.846;6.614;2023-11-19T03:13:15;12.30;99.90
57088;DHT22;42965;52.846;6.614;2023-11-19T03:15:43;12.40;99.90
57088;DHT22;42965;52.846;6.614;2023-11-19T03:18:09;12.40;99.90
57088;DHT22;42965;52.846;6.614;2023-11-19T03:20:35;12.40;99.90
57088;DHT22;42965;52.846;6.614;2023-11-19T03:23:02;12.30;99.90
57088;DHT22;42965;52.846;6.614;2023-11-19T03:25:29;12.30;99.90
57088;DHT22;42965;52.846;6.614;2023-11-19T03:28:01;12.30;99.90
57088;DHT22;42965;52.846;6.614;2023-11-19T03:30:31;12.20;99.90
57088;DHT22;42965;52.846;6.614;2023-11-19T03:32:57;12.20;99.90
57088;DHT22;42965;52.846;6.614;2023-11-19T03:35:24;12.20;99.90
57088;DHT22;42965;52.846;6.614;2023-11-19T03:37:50;12.20;99.90
57088;DHT22;42965;52.846;6.614;2023-11-19T03:40:18;12.20;99.90
57088;DHT22;42965;52.846;6.614;2023-11-19T03:42:46;12.30;99.90
57088;DHT22;42965;52.846;6.614;2023-11-19T03:45:12;12.40;99.90
57088;DHT22;42965;52.846;6.614;2023-11-19T03:47:38;12.30;99.90
57088;DHT22;42965;52.846;6.614;2023-11-19T03:50:06;12.30;99.90
57088;DHT22;42965;52.846;6.614;2023-11-19T03:52:33;12.30;99.90
57088;DHT22;42965;52.846;6.614;2023-11-19T03:54:59;12.30;99.90
57088;DHT22;42965;52.846;6.614;2023-11-19T03:57:27;12.30;99.90
57088;DHT22;42965;52.846;6.614;2023-11-19T03:59:54;12.30;99.90
57088;DHT22;42965;52.846;6.614;2023-11-19T04:02:21;12.30;99.90
57088;DHT22;42965;52.846;6.614;2023-11-19T04:04:47;12.30;99.90
57088;DHT22;42965;52.846;6.614;2023-11-19T04:07:14;12.30;99.90
57088;DHT22;42965;52.846;6.614;2023-11-19T04:09:41;12.30;99.90
57088;DHT22;42965;52.846;6.614;2023-11-19T04:12:08;12.30;99.90
57088;DHT22;42965;52.846;6.614;2023-11-19T04:14:34;12.30;99.90
57088;DHT22;42965;52.846;6.614;2023-11-19T04:17:02;12.30;99.90
57088;DHT22;42965;52.846;6.614;2023-11-19T04:19:28;12.30;99.90
57088;DHT22;42965;52.846;6.614;2023-11-19T04:21:54;12.20;99.90
57088;DHT22;42965;52.846;6.614;2023-11-19T04:24:21;12.10;99.90
57088;DHT22;42965;52.846;6.614;2023-11-19T04:26:51;12.20;99.90
57088;DHT22;42965;52.846;6.614;2023-11-19T04:29:18;12.10;99.90
57088;DHT22;42965;52.846;6.614;2023-11-19T04:31:45;12.10;99.90
57088;DHT22;42965;52.846;6.614;2023-11-19T04:34:12;12.10;99.90
57088;DHT22;42965;52.846;6.614;2023-11-19T04:36:38;12.10;99.90
57088;DHT22;42965;52.846;6.614;2023-11-19T04:39:05;12.00;99.90
57088;DHT22;42965;52.846;6.614;2023-11-19T04:41:36;12.00;99.90
57088;DHT22;42965;52.846;6.614;2023-11-19T04:44:02;12.00;99.90
57088;DHT22;42965;52.846;6.614;2023-11-19T04:46:29;12.00;99.90
57088;DHT22;42965;52.846;6.614;2023-11-19T04:48:55;12.00;99.90
57088;DHT22;42965;52.846;6.614;2023-11-19T04:51:21;12.00;99.90
57088;DHT22;42965;52.846;6.614;2023-11-19T04:53:48;12.00;99.90
57088;DHT22;42965;52.846;6.614;2023-11-19T04:56:14;11.90;99.90
57088;DHT22;42965;52.846;6.614;2023-11-19T04:58:51;11.90;99.90
57088;DHT22;42965;52.846;6.614;2023-11-19T05:01:17;11.80;99.90
57088;DHT22;42965;52.846;6.614;2023-11-19T05:03:47;11.80;99.90
57088;DHT22;42965;52.846;6.614;2023-11-19T05:06:13;11.80;99.90
57088;DHT22;42965;52.846;6.614;2023-11-19T05:08:39;11.70;99.90
57088;DHT22;42965;52.846;6.614;2023-11-19T05:11:06;11.70;99.90
57088;DHT22;42965;52.846;6.614;2023-11-19T05:13:32;11.70;99.90
57088;DHT22;42965;52.846;6.614;2023-11-19T05:15:58;11.70;99.90
57088;DHT22;42965;52.846;6.614;2023-11-19T05:18:24;11.70;99.90
57088;DHT22;42965;52.846;6.614;2023-11-19T05:20:51;11.70;99.90
57088;DHT22;42965;52.846;6.614;2023-11-19T05:23:17;11.80;99.90
57088;DHT22;42965;52.846;6.614;2023-11-19T05:25:43;11.80;99.90
57088;DHT22;42965;52.846;6.614;2023-11-19T05:28:12;11.80;99.90
57088;DHT22;42965;52.846;6.614;2023-11-19T05:30:40;11.80;99.90
57088;DHT22;42965;52.846;6.614;2023-11-19T05:33:08;11.90;99.90
57088;DHT22;42965;52.846;6.614;2023-11-19T05:35:36;11.90;99.90
57088;DHT22;42965;52.846;6.614;2023-11-19T05:38:02;11.90;99.90
57088;DHT22;42965;52.846;6.614;2023-11-19T05:40:28;11.90;99.90
57088;DHT22;42965;52.846;6.614;2023-11-19T05:42:54;11.90;99.90
57088;DHT22;42965;52.846;6.614;2023-11-19T05:45:20;11.90;99.90
57088;DHT22;42965;52.846;6.614;2023-11-19T05:47:47;11.90;99.90
57088;DHT22;42965;52.846;6.614;2023-11-19T05:50:14;11.90;99.90
57088;DHT22;42965;52.846;6.614;2023-11-19T05:52:46;11.90;99.90
57088;DHT22;42965;52.846;6.614;2023-11-19T05:55:12;11.90;99.90
57088;DHT22;42965;52.846;6.614;2023-11-19T05:57:39;11.90;99.90
57088;DHT22;42965;52.846;6.614;2023-11-19T06:00:07;11.90;99.90
57088;DHT22;42965;52.846;6.614;2023-11-19T06:02:38;11.90;99.90
57088;DHT22;42965;52.846;6.614;2023-11-19T06:05:05;11.90;99.90
57088;DHT22;42965;52.846;6.614;2023-11-19T06:07:32;11.80;99.90
57088;DHT22;42965;52.846;6.614;2023-11-19T06:09:59;11.80;99.90
57088;DHT22;42965;52.846;6.614;2023-11-19T06:12:26;11.80;99.90
57088;DHT22;42965;52.846;6.614;2023-11-19T06:14:53;11.80;99.90
57088;DHT22;42965;52.846;6.614;2023-11-19T06:17:19;11.80;99.90
57088;DHT22;42965;52.846;6.614;2023-11-19T06:19:46;11.80;99.90
57088;DHT22;42965;52.846;6.614;2023-11-19T06:22:12;11.70;99.90
57088;DHT22;42965;52.846;6.614;2023-11-19T06:24:38;11.70;99.90
57088;DHT22;42965;52.846;6.614;2023-11-19T06:27:05;11.60;99.90
57088;DHT22;42965;52.846;6.614;2023-11-19T06:29:36;11.60;99.90
57088;DHT22;42965;52.846;6.614;2023-11-19T06:32:09;11.60;99.90
57088;DHT22;42965;52.846;6.614;2023-11-19T06:34:37;11.60;99.90
57088;DHT22;42965;52.846;6.614;2023-11-19T06:37:04;11.60;99.90
57088;DHT22;42965;52.846;6.614;2023-11-19T06:39:32;11.60;99.90
57088;DHT22;42965;52.846;6.614;2023-11-19T06:42:01;11.60;99.90
57088;DHT22;42965;52.846;6.614;2023-11-19T06:44:27;11.60;99.90
57088;DHT22;42965;52.846;6.614;2023-11-19T06:46:53;11.60;99.90
57088;DHT22;42965;52.846;6.614;2023-11-19T06:49:20;11.60;99.90
57088;DHT22;42965;52.846;6.614;2023-11-19T06:51:46;11.60;99.90
57088;DHT22;42965;52.846;6.614;2023-11-19T06:54:12;11.60;99.90
57088;DHT22;42965;52.846;6.614;2023-11-19T06:56:39;11.60;99.90
57088;DHT22;42965;52.846;6.614;2023-11-19T06:59:06;11.50;99.90
57088;DHT22;42965;52.846;6.614;2023-11-19T07:01:36;11.50;99.90
57088;DHT22;42965;52.846;6.614;2023-11-19T07:04:03;11.50;99.90
57088;DHT22;42965;52.846;6.614;2023-11-19T07:06:35;11.50;99.90
57088;DHT22;42965;52.846;6.614;2023-11-19T07:09:03;11.50;99.90
57088;DHT22;42965;52.846;6.614;2023-11-19T07:11:37;11.50;99.90
57088;DHT22;42965;52.846;6.614;2023-11-19T07:14:05;11.50;99.90
57088;DHT22;42965;52.846;6.614;2023-11-19T07:16:35;11.50;99.90
57088;DHT22;42965;52.846;6.614;2023-11-19T07:19:06;11.50;99.90
57088;DHT22;42965;52.846;6.614;2023-11-19T07:21:32;11.50;99.90
57088;DHT22;42965;52.846;6.614;2023-11-19T07:24:05;11.50;99.90
57088;DHT22;42965;52.846;6.614;2023-11-19T07:26:31;11.60;99.90
57088;DHT22;42965;52.846;6.614;2023-11-19T07:28:59;11.50;99.90
57088;DHT22;42965;52.846;6.614;2023-11-19T07:31:27;11.50;99.90
57088;DHT22;42965;52.846;6.614;2023-11-19T07:33:54;11.50;99.90
57088;DHT22;42965;52.846;6.614;2023-11-19T07:36:20;11.60;99.90
57088;DHT22;42965;52.846;6.614;2023-11-19T07:38:47;11.50;99.90
57088;DHT22;42965;52.846;6.614;2023-11-19T07:41:13;11.50;99.90
57088;DHT22;42965;52.846;6.614;2023-11-19T07:43:44;11.60;99.90
57088;DHT22;42965;52.846;6.614;2023-11-19T07:46:13;11.60;99.90
57088;DHT22;42965;52.846;6.614;2023-11-19T07:48:40;11.60;99.90
57088;DHT22;42965;52.846;6.614;2023-11-19T07:51:10;11.70;99.90
57088;DHT22;42965;52.846;6.614;2023-11-19T07:53:37;11.80;99.90
57088;DHT22;42965;52.846;6.614;2023-11-19T07:56:04;11.80;99.90
57088;DHT22;42965;52.846;6.614;2023-11-19T07:58:31;11.80;99.90
57088;DHT22;42965;52.846;6.614;2023-11-19T08:00:59;11.80;99.90
57088;DHT22;42965;52.846;6.614;2023-11-19T08:03:25;11.80;99.90
57088;DHT22;42965;52.846;6.614;2023-11-19T08:05:57;11.80;99.90
57088;DHT22;42965;52.846;6.614;2023-11-19T08:08:23;11.80;99.90
57088;DHT22;42965;52.846;6.614;2023-11-19T08:10:49;11.80;99.90
57088;DHT22;42965;52.846;6.614;2023-11-19T08:13:18;11.80;99.90
57088;DHT22;42965;52.846;6.614;2023-11-19T08:15:45;11.70;99.90
57088;DHT22;42965;52.846;6.614;2023-11-19T08:18:12;11.70;99.90
57088;DHT22;42965;52.846;6.614;2023-11-19T08:20:38;11.70;99.90
57088;DHT22;42965;52.846;6.614;2023-11-19T08:23:05;11.70;99.90
57088;DHT22;42965;52.846;6.614;2023-11-19T08:25:31;11.80;99.90
57088;DHT22;42965;52.846;6.614;2023-11-19T08:28:00;11.70;99.90
57088;DHT22;42965;52.846;6.614;2023-11-19T08:30:26;11.70;99.90
57088;DHT22;42965;52.846;6.614;2023-11-19T08:32:54;11.70;99.90
57088;DHT22;42965;52.846;6.614;2023-11-19T08:35:20;11.70;99.90
57088;DHT22;42965;52.846;6.614;2023-11-19T08:37:47;11.70;99.90
57088;DHT22;42965;52.846;6.614;2023-11-19T08:40:13;11.70;99.90
57088;DHT22;42965;52.846;6.614;2023-11-19T08:42:44;11.70;99.90
57088;DHT22;42965;52.846;6.614;2023-11-19T08:45:10;11.80;99.90
57088;DHT22;42965;52.846;6.614;2023-11-19T08:47:37;11.70;99.90
57088;DHT22;42965;52.846;6.614;2023-11-19T08:50:04;11.70;99.90
57088;DHT22;42965;52.846;6.614;2023-11-19T08:52:31;11.80;99.90
57088;DHT22;42965;52.846;6.614;2023-11-19T08:54:57;11.80;99.90
57088;DHT22;42965;52.846;6.614;2023-11-19T08:57:23;11.80;99.90
57088;DHT22;42965;52.846;6.614;2023-11-19T08:59:50;11.70;99.90
57088;DHT22;42965;52.846;6.614;2023-11-19T09:02:16;11.60;99.90
57088;DHT22;42965;52.846;6.614;2023-11-19T09:04:42;11.60;99.90
57088;DHT22;42965;52.846;6.614;2023-11-19T09:07:08;11.60;99.90
57088;DHT22;42965;52.846;6.614;2023-11-19T09:09:39;11.60;99.90
57088;DHT22;42965;52.846;6.614;2023-11-19T09:12:06;11.60;99.90
57088;DHT22;42965;52.846;6.614;2023-11-19T09:14:37;11.60;99.90
57088;DHT22;42965;52.846;6.614;2023-11-19T09:17:03;11.60;99.90
57088;DHT22;42965;52.846;6.614;2023-11-19T09:19:32;11.70;99.90
57088;DHT22;42965;52.846;6.614;2023-11-19T09:21:58;11.70;99.90
57088;DHT22;42965;52.846;6.614;2023-11-19T09:24:25;11.80;99.90
57088;DHT22;42965;52.846;6.614;2023-11-19T09:26:51;11.80;99.90
57088;DHT22;42965;52.846;6.614;2023-11-19T09:29:17;11.80;99.90
57088;DHT22;42965;52.846;6.614;2023-11-19T09:31:44;11.80;99.90
57088;DHT22;42965;52.846;6.614;2023-11-19T09:34:10;11.80;99.90
57088;DHT22;42965;52.846;6.614;2023-11-19T09:36:37;11.90;99.90
57088;DHT22;42965;52.846;6.614;2023-11-19T09:39:04;11.90;99.90
57088;DHT22;42965;52.846;6.614;2023-11-19T09:41:31;11.90;99.90
57088;DHT22;42965;52.846;6.614;2023-11-19T09:43:58;12.00;99.90
57088;DHT22;42965;52.846;6.614;2023-11-19T09:46:25;12.00;99.90
57088;DHT22;42965;52.846;6.614;2023-11-19T09:48:56;12.00;99.90
57088;DHT22;42965;52.846;6.614;2023-11-19T09:51:23;12.10;99.90
57088;DHT22;42965;52.846;6.614;2023-11-19T09:53:50;12.10;99.90
57088;DHT22;42965;52.846;6.614;2023-11-19T09:56:17;12.20;99.90
57088;DHT22;42965;52.846;6.614;2023-11-19T09:58:44;12.20;99.90
57088;DHT22;42965;52.846;6.614;2023-11-19T10:01:10;12.20;99.90
57088;DHT22;42965;52.846;6.614;2023-11-19T10:03:39;12.30;99.90
57088;DHT22;42965;52.846;6.614;2023-11-19T10:06:08;12.30;99.90
57088;DHT22;42965;52.846;6.614;2023-11-19T10:08:37;12.20;99.90
57088;DHT22;42965;52.846;6.614;2023-11-19T10:11:03;12.20;99.90
57088;DHT22;42965;52.846;6.614;2023-11-19T10:13:30;12.20;99.90
57088;DHT22;42965;52.846;6.614;2023-11-19T10:15:57;12.10;99.90
57088;DHT22;42965;52.846;6.614;2023-11-19T10:18:26;12.10;99.90
57088;DHT22;42965;52.846;6.614;2023-11-19T10:20:53;12.00;99.90
57088;DHT22;42965;52.846;6.614;2023-11-19T10:23:21;11.90;99.90
57088;DHT22;42965;52.846;6.614;2023-11-19T10:25:47;11.70;99.90
57088;DHT22;42965;52.846;6.614;2023-11-19T10:28:15;11.70;99.90
57088;DHT22;42965;52.846;6.614;2023-11-19T10:30:44;11.60;99.90
57088;DHT22;42965;52.846;6.614;2023-11-19T10:33:12;11.50;99.90
57088;DHT22;42965;52.846;6.614;2023-11-19T10:35:56;11.40;99.90
57088;DHT22;42965;52.846;6.614;2023-11-19T10:38:25;11.40;99.90
57088;DHT22;42965;52.846;6.614;2023-11-19T10:40:52;11.30;99.90
57088;DHT22;42965;52.846;6.614;2023-11-19T10:43:19;11.30;99.90
57088;DHT22;42965;52.846;6.614;2023-11-19T10:45:48;11.30;99.90
57088;DHT22;42965;52.846;6.614;2023-11-19T10:48:15;11.30;99.90
57088;DHT22;42965;52.846;6.614;2023-11-19T10:50:44;11.40;99.90
57088;DHT22;42965;52.846;6.614;2023-11-19T10:53:12;11.40;99.90
57088;DHT22;42965;52.846;6.614;2023-11-19T10:55:47;11.40;99.90
57088;DHT22;42965;52.846;6.614;2023-11-19T10:58:16;11.50;99.90
57088;DHT22;42965;52.846;6.614;2023-11-19T11:00:47;11.60;99.90
57088;DHT22;42965;52.846;6.614;2023-11-19T11:03:18;11.70;99.90
57088;DHT22;42965;52.846;6.614;2023-11-19T11:05:49;11.70;99.90
57088;DHT22;42965;52.846;6.614;2023-11-19T11:08:16;11.80;99.90
57088;DHT22;42965;52.846;6.614;2023-11-19T11:13:14;11.90;99.90
57088;DHT22;42965;52.846;6.614;2023-11-19T11:15:41;12.00;99.90
57088;DHT22;42965;52.846;6.614;2023-11-19T11:18:11;11.90;99.90
57088;DHT22;42965;52.846;6.614;2023-11-19T11:20:37;11.70;99.90
57088;DHT22;42965;52.846;6.614;2023-11-19T11:23:21;11.70;99.90
57088;DHT22;42965;52.846;6.614;2023-11-19T11:26:21;11.60;99.90
57088;DHT22;42965;52.846;6.614;2023-11-19T11:31:52;11.50;99.90
57088;DHT22;42965;52.846;6.614;2023-11-19T11:37:15;11.60;99.90
57088;DHT22;42965;52.846;6.614;2023-11-19T11:39:46;11.60;99.90
57088;DHT22;42965;52.846;6.614;2023-11-19T11:45:10;11.60;99.90
57088;DHT22;42965;52.846;6.614;2023-11-19T11:53:17;12.00;99.90
57088;DHT22;42965;52.846;6.614;2023-11-19T11:58:21;11.90;99.90
57088;DHT22;42965;52.846;6.614;2023-11-19T12:00:48;11.90;99.90
57088;DHT22;42965;52.846;6.614;2023-11-19T12:03:15;11.80;99.90
57088;DHT22;42965;52.846;6.614;2023-11-19T12:05:42;11.80;99.90
57088;DHT22;42965;52.846;6.614;2023-11-19T12:08:11;11.70;99.90
57088;DHT22;42965;52.846;6.614;2023-11-19T12:10:45;11.80;99.90
57088;DHT22;42965;52.846;6.614;2023-11-19T12:13:14;11.70;99.90
57088;DHT22;42965;52.846;6.614;2023-11-19T12:18:26;11.60;99.90
57088;DHT22;42965;52.846;6.614;2023-11-19T12:20:53;11.60;99.90
57088;DHT22;42965;52.846;6.614;2023-11-19T12:23:19;11.50;99.90
57088;DHT22;42965;52.846;6.614;2023-11-19T12:25:46;11.50;99.90
57088;DHT22;42965;52.846;6.614;2023-11-19T12:28:13;11.40;99.90
57088;DHT22;42965;52.846;6.614;2023-11-19T12:30:40;11.30;99.90
57088;DHT22;42965;52.846;6.614;2023-11-19T12:33:10;11.20;99.90
57088;DHT22;42965;52.846;6.614;2023-11-19T12:35:41;11.20;99.90
57088;DHT22;42965;52.846;6.614;2023-11-19T12:38:25;11.20;99.90
57088;DHT22;42965;52.846;6.614;2023-11-19T12:41:08;11.10;99.90
57088;DHT22;42965;52.846;6.614;2023-11-19T12:43:38;11.10;99.90
57088;DHT22;42965;52.846;6.614;2023-11-19T12:46:24;11.10;99.90
57088;DHT22;42965;52.846;6.614;2023-11-19T12:48:52;11.10;99.90
57088;DHT22;42965;52.846;6.614;2023-11-19T12:51:19;11.20;99.90
57088;DHT22;42965;52.846;6.614;2023-11-19T12:53:52;11.10;99.90
57088;DHT22;42965;52.846;6.614;2023-11-19T12:56:24;11.20;99.90
57088;DHT22;42965;52.846;6.614;2023-11-19T12:58:50;11.20;99.90
57088;DHT22;42965;52.846;6.614;2023-11-19T13:01:18;11.20;99.90
57088;DHT22;42965;52.846;6.614;2023-11-19T13:03:45;11.10;99.90
57088;DHT22;42965;52.846;6.614;2023-11-19T13:06:13;11.20;99.90
57088;DHT22;42965;52.846;6.614;2023-11-19T13:08:44;11.20;99.90
57088;DHT22;42965;52.846;6.614;2023-11-19T13:11:12;11.20;99.90
57088;DHT22;42965;52.846;6.614;2023-11-19T13:13:58;11.30;99.90
57088;DHT22;42965;52.846;6.614;2023-11-19T13:16:30;11.30;99.90
57088;DHT22;42965;52.846;6.614;2023-11-19T13:18:57;11.30;99.90
57088;DHT22;42965;52.846;6.614;2023-11-19T13:21:24;11.30;99.90
57088;DHT22;42965;52.846;6.614;2023-11-19T13:23:50;11.40;99.90
57088;DHT22;42965;52.846;6.614;2023-11-19T13:26:17;11.40;99.90
57088;DHT22;42965;52.846;6.614;2023-11-19T13:28:43;11.40;99.90
57088;DHT22;42965;52.846;6.614;2023-11-19T13:31:09;11.30;99.90
57088;DHT22;42965;52.846;6.614;2023-11-19T13:33:36;11.40;99.90
57088;DHT22;42965;52.846;6.614;2023-11-19T13:36:04;11.40;99.90
57088;DHT22;42965;52.846;6.614;2023-11-19T13:38:34;11.40;99.90
57088;DHT22;42965;52.846;6.614;2023-11-19T13:41:04;11.50;99.90
57088;DHT22;42965;52.846;6.614;2023-11-19T13:43:31;11.50;99.90
57088;DHT22;42965;52.846;6.614;2023-11-19T13:45:57;11.50;99.90
57088;DHT22;42965;52.846;6.614;2023-11-19T13:48:24;11.60;99.90
57088;DHT22;42965;52.846;6.614;2023-11-19T13:50:52;11.50;99.90
57088;DHT22;42965;52.846;6.614;2023-11-19T13:53:19;11.50;99.90
57088;DHT22;42965;52.846;6.614;2023-11-19T13:55:45;11.50;99.90
57088;DHT22;42965;52.846;6.614;2023-11-19T13:58:12;11.50;99.90
57088;DHT22;42965;52.846;6.614;2023-11-19T14:00:38;11.60;99.90
57088;DHT22;42965;52.846;6.614;2023-11-19T14:03:04;11.50;99.90
57088;DHT22;42965;52.846;6.614;2023-11-19T14:05:31;11.50;99.90
57088;DHT22;42965;52.846;6.614;2023-11-19T14:07:57;11.40;99.90
57088;DHT22;42965;52.846;6.614;2023-11-19T14:10:23;11.30;99.90
57088;DHT22;42965;52.846;6.614;2023-11-19T14:12:50;11.20;99.90
57088;DHT22;42965;52.846;6.614;2023-11-19T14:15:16;11.20;99.90
57088;DHT22;42965;52.846;6.614;2023-11-19T14:17:43;11.10;99.90
57088;DHT22;42965;52.846;6.614;2023-11-19T14:20:10;11.10;99.90
57088;DHT22;42965;52.846;6.614;2023-11-19T14:22:45;11.10;99.90
57088;DHT22;42965;52.846;6.614;2023-11-19T14:25:17;11.10;99.90
57088;DHT22;42965;52.846;6.614;2023-11-19T14:27:44;11.10;99.90
57088;DHT22;42965;52.846;6.614;2023-11-19T14:30:12;11.00;99.90
57088;DHT22;42965;52.846;6.614;2023-11-19T14:32:41;11.00;99.90
57088;DHT22;42965;52.846;6.614;2023-11-19T14:35:12;11.00;99.90
57088;DHT22;42965;52.846;6.614;2023-11-19T14:37:38;11.00;99.90
57088;DHT22;42965;52.846;6.614;2023-11-19T14:40:06;11.00;99.90
57088;DHT22;42965;52.846;6.614;2023-11-19T14:42:34;11.00;99.90
57088;DHT22;42965;52.846;6.614;2023-11-19T14:45:06;11.00;99.90
57088;DHT22;42965;52.846;6.614;2023-11-19T14:47:34;11.00;99.90
57088;DHT22;42965;52.846;6.614;2023-11-19T14:50:02;11.00;99.90
57088;DHT22;42965;52.846;6.614;2023-11-19T14:52:32;11.00;99.90
57088;DHT22;42965;52.846;6.614;2023-11-19T14:54:58;11.00;99.90
57088;DHT22;42965;52.846;6.614;2023-11-19T14:57:24;11.00;99.90
57088;DHT22;42965;52.846;6.614;2023-11-19T14:59:50;11.00;99.90
57088;DHT22;42965;52.846;6.614;2023-11-19T15:02:16;11.00;99.90
57088;DHT22;42965;52.846;6.614;2023-11-19T15:04:44;11.00;99.90
57088;DHT22;42965;52.846;6.614;2023-11-19T15:07:10;11.00;99.90
57088;DHT22;42965;52.846;6.614;2023-11-19T15:09:39;11.00;99.90
57088;DHT22;42965;52.846;6.614;2023-11-19T15:12:06;11.00;99.90
57088;DHT22;42965;52.846;6.614;2023-11-19T15:14:32;11.00;99.90
57088;DHT22;42965;52.846;6.614;2023-11-19T15:16:58;11.00;99.90
57088;DHT22;42965;52.846;6.614;2023-11-19T15:19:24;11.00;99.90
57088;DHT22;42965;52.846;6.614;2023-11-19T15:21:51;11.00;99.90
57088;DHT22;42965;52.846;6.614;2023-11-19T15:24:17;11.00;99.90
57088;DHT22;42965;52.846;6.614;2023-11-19T15:26:43;11.00;99.90
57088;DHT22;42965;52.846;6.614;2023-11-19T15:29:09;11.00;99.90
57088;DHT22;42965;52.846;6.614;2023-11-19T15:31:36;11.00;99.90
57088;DHT22;42965;52.846;6.614;2023-11-19T15:34:02;11.00;99.90
57088;DHT22;42965;52.846;6.614;2023-11-19T15:36:28;11.10;99.90
57088;DHT22;42965;52.846;6.614;2023-11-19T15:38:54;11.00;99.90
57088;DHT22;42965;52.846;6.614;2023-11-19T15:41:21;11.00;99.90
57088;DHT22;42965;52.846;6.614;2023-11-19T15:43:48;11.00;99.90
57088;DHT22;42965;52.846;6.614;2023-11-19T15:46:18;11.00;99.90
57088;DHT22;42965;52.846;6.614;2023-11-19T15:48:44;11.00;99.90
57088;DHT22;42965;52.846;6.614;2023-11-19T15:51:10;11.00;99.90
57088;DHT22;42965;52.846;6.614;2023-11-19T15:53:42;11.00;99.90
57088;DHT22;42965;52.846;6.614;2023-11-19T15:56:11;11.00;99.90
57088;DHT22;42965;52.846;6.614;2023-11-19T15:58:38;11.00;99.90
57088;DHT22;42965;52.846;6.614;2023-11-19T16:01:06;11.00;99.90
57088;DHT22;42965;52.846;6.614;2023-11-19T16:03:32;11.00;99.90